createdAt,value
2022-11-04T00:02:31.270Z,1.35
2022-11-04T00:07:52.251Z,1.40
2022-11-04T00:12:54.559Z,1.92
2022-11-04T00:17:58.359Z,1.70
2022-11-04T00:23:19.345Z,1.50
2022-11-04T00:28:39.899Z,1.17
2022-11-04T00:33:42.066Z,1.98
2022-11-04T00:38:44.346Z,1.90
2022-11-04T00:43:46.572Z,1.13
2022-11-04T00:48:49.103Z,1.42
2022-11-04T00:53:51.871Z,1.30
2022-11-04T00:58:54.092Z,1.33
2022-11-04T01:03:56.803Z,1.40
2022-11-04T01:09:01.379Z,1.00
2022-11-04T01:14:04.361Z,1.52
2022-11-04T01:19:06.926Z,1.60
2022-11-04T01:24:09.174Z,1.55
2022-11-04T01:29:11.291Z,2.17
2022-11-04T01:34:13.440Z,2.60
2022-11-04T01:39:15.637Z,2.45
2022-11-04T01:44:42.665Z,2.17
2022-11-04T01:49:50.629Z,2.35
2022-11-04T01:54:55.866Z,3.00
2022-11-04T02:00:02.465Z,2.35
2022-11-04T02:05:13.844Z,3.03
2022-11-04T02:10:16.333Z,2.78
2022-11-04T02:15:29.848Z,3.00
2022-11-04T02:21:12.923Z,3.35
2022-11-04T02:26:42.114Z,3.65
2022-11-04T02:31:56.038Z,4.45
2022-11-04T02:37:24.745Z,3.63
2022-11-04T02:42:45.451Z,3.97
2022-11-04T02:48:10.937Z,3.53
2022-11-04T02:53:35.245Z,3.28
2022-11-04T02:58:44.459Z,2.85
2022-11-04T03:03:51.177Z,2.30
2022-11-04T03:08:55.474Z,2.88
2022-11-04T03:14:12.600Z,3.30
2022-11-04T03:19:29.097Z,2.10
2022-11-04T03:24:31.905Z,2.83
2022-11-04T03:29:39.870Z,2.33
2022-11-04T03:34:42.775Z,1.75
2022-11-04T03:39:45.022Z,2.00
2022-11-04T03:44:54.180Z,1.92
2022-11-04T03:50:09.188Z,1.98
2022-11-04T03:55:12.583Z,2.80
2022-11-04T04:00:18.661Z,2.25
2022-11-04T04:05:22.738Z,2.22
2022-11-04T04:10:39.947Z,2.38
2022-11-04T04:16:03.047Z,1.83
2022-11-04T04:21:08.159Z,1.70
2022-11-04T04:26:31.062Z,2.80
2022-11-04T04:31:50.753Z,1.88
2022-11-04T04:37:20.670Z,1.52
2022-11-04T04:42:41.960Z,1.70
2022-11-04T04:47:46.696Z,1.40
2022-11-04T04:52:51.458Z,1.80
2022-11-04T04:57:53.487Z,1.42
2022-11-04T05:02:55.812Z,1.67
2022-11-04T05:08:06.105Z,1.98
2022-11-04T05:13:27.274Z,1.30
2022-11-04T05:18:29.353Z,1.10
2022-11-04T05:23:31.433Z,1.27
2022-11-04T05:28:33.629Z,1.20
2022-11-04T05:33:35.795Z,1.80
2022-11-04T05:38:38.010Z,1.85
2022-11-04T05:43:40.187Z,1.30
2022-11-04T05:48:42.312Z,1.55
2022-11-04T05:53:44.855Z,1.38
2022-11-04T05:58:47.002Z,1.35
2022-11-04T06:03:49.292Z,1.45
2022-11-04T06:08:51.975Z,1.52
2022-11-04T06:13:55.317Z,1.42
2022-11-04T06:19:01.516Z,1.45
2022-11-04T06:24:08.303Z,1.60
2022-11-04T06:29:10.902Z,2.13
2022-11-04T06:34:12.972Z,1.70
2022-11-04T06:39:15.082Z,1.83
2022-11-04T06:44:17.284Z,1.90
2022-11-04T06:49:21.680Z,1.63
2022-11-04T06:54:23.808Z,1.70
2022-11-04T06:59:25.973Z,1.63
2022-11-04T07:04:28.258Z,1.80
2022-11-04T07:09:30.362Z,2.80
2022-11-04T07:14:32.452Z,1.60
2022-11-04T07:19:34.548Z,1.60
2022-11-04T07:24:36.645Z,1.55
2022-11-04T07:29:38.828Z,1.52
2022-11-04T07:34:40.946Z,2.30
2022-11-04T07:39:43.023Z,2.78
2022-11-04T07:44:45.076Z,2.55
2022-11-04T07:49:47.229Z,2.15
2022-11-04T07:54:49.505Z,1.20
2022-11-04T07:59:51.593Z,1.83
2022-11-04T08:04:53.897Z,3.92
2022-11-04T08:09:56.076Z,1.63
2022-11-04T08:14:59.462Z,1.67
2022-11-04T08:20:01.662Z,0.88
2022-11-04T08:25:04.323Z,1.05
2022-11-04T08:30:07.074Z,1.35
2022-11-04T08:35:09.370Z,1.33
2022-11-04T08:40:11.710Z,1.20
2022-11-04T08:45:13.983Z,1.30
2022-11-04T08:50:16.155Z,1.20
2022-11-04T08:55:18.387Z,1.63
2022-11-04T09:00:21.232Z,1.63
2022-11-04T09:05:23.600Z,1.50
2022-11-04T09:10:25.763Z,2.22
2022-11-04T09:15:27.891Z,1.55
2022-11-04T09:20:30.074Z,1.35
2022-11-04T09:25:33.201Z,1.27
2022-11-04T09:30:35.284Z,1.20
2022-11-04T09:35:37.445Z,1.10
2022-11-04T09:40:39.646Z,1.55
2022-11-04T09:45:43.220Z,1.40
2022-11-04T09:50:52.436Z,1.35
2022-11-04T09:55:58.587Z,1.50
2022-11-04T10:01:28.240Z,0.90
2022-11-04T10:06:46.312Z,1.20
2022-11-04T10:12:02.504Z,1.52
2022-11-04T10:22:29.197Z,1.35
2022-11-04T10:27:36.444Z,1.52
2022-11-04T10:33:22.595Z,1.50
2022-11-04T10:38:33.212Z,2.33
2022-11-04T10:43:38.899Z,2.35
2022-11-04T10:48:58.480Z,2.28
2022-11-04T10:54:02.512Z,2.70
2022-11-04T10:59:42.491Z,2.63
2022-11-04T11:04:47.202Z,2.72
2022-11-04T11:09:54.402Z,2.90
2022-11-04T11:14:57.850Z,2.55
2022-11-04T11:20:08.378Z,2.63
2022-11-04T11:25:31.347Z,2.30
2022-11-04T11:30:44.516Z,2.72
2022-11-04T11:36:00.139Z,2.83
2022-11-04T11:41:28.476Z,2.35
2022-11-04T11:46:34.047Z,2.47
2022-11-04T11:51:39.920Z,2.60
2022-11-04T12:02:28.610Z,2.08
2022-11-04T12:13:52.511Z,2.10
2022-11-04T12:19:13.266Z,2.40
2022-11-04T12:24:24.515Z,2.40
2022-11-04T12:29:50.723Z,2.08
2022-11-04T12:35:08.539Z,2.45
2022-11-04T12:40:20.883Z,2.45
2022-11-04T12:45:44.844Z,2.58
2022-11-04T12:51:13.555Z,2.20
2022-11-04T12:56:18.706Z,2.20
2022-11-04T13:01:33.528Z,2.87
2022-11-04T13:06:58.372Z,2.30
2022-11-04T13:12:09.975Z,2.30
2022-11-04T13:17:18.880Z,1.70
2022-11-04T13:22:41.938Z,1.52
2022-11-04T13:27:46.434Z,1.50
2022-11-04T13:32:53.775Z,1.60
2022-11-04T13:38:12.749Z,1.95
2022-11-04T13:43:42.782Z,1.70
2022-11-04T13:48:57.299Z,1.45
2022-11-04T13:53:59.523Z,1.70
2022-11-04T13:59:20.546Z,1.75
2022-11-04T14:04:31.926Z,1.40
2022-11-04T14:09:43.300Z,1.45
2022-11-04T14:14:54.097Z,1.60
2022-11-04T14:20:00.760Z,1.30
2022-11-04T14:25:24.830Z,1.10
2022-11-04T14:30:51.946Z,1.50
2022-11-04T14:35:55.664Z,1.48
2022-11-04T14:41:29.540Z,1.58
2022-11-04T14:46:41.083Z,1.40
2022-11-04T14:51:43.666Z,1.63
2022-11-04T14:56:47.025Z,1.30
2022-11-04T15:01:52.516Z,1.48
2022-11-04T15:06:59.849Z,1.92
2022-11-04T15:12:31.177Z,2.60
2022-11-04T15:17:34.236Z,1.50
2022-11-04T15:22:36.816Z,1.50
2022-11-04T15:27:41.638Z,1.23
2022-11-04T15:33:02.938Z,1.27
2022-11-04T15:38:05.316Z,1.23
2022-11-04T15:43:08.233Z,1.13
2022-11-04T15:48:28.197Z,1.38
2022-11-04T15:53:32.308Z,1.50
2022-11-04T15:58:34.605Z,2.25
2022-11-04T16:03:36.850Z,2.00
2022-11-04T16:08:40.232Z,1.40
2022-11-04T16:13:43.333Z,1.50
2022-11-04T16:18:59.274Z,1.63
2022-11-04T16:24:07.091Z,1.63
2022-11-04T16:29:24.994Z,1.30
2022-11-04T16:34:27.032Z,1.23
2022-11-04T16:39:29.186Z,1.35
2022-11-04T16:44:32.393Z,1.10
2022-11-04T16:49:34.482Z,1.02
2022-11-04T16:54:36.587Z,2.22
2022-11-04T16:59:40.685Z,1.85
2022-11-04T17:04:44.153Z,2.60
2022-11-04T17:09:46.587Z,4.07
2022-11-04T17:14:48.770Z,7.25
2022-11-04T17:19:50.974Z,4.25
2022-11-04T17:24:53.226Z,5.90
2022-11-04T17:29:55.440Z,4.60
2022-11-04T17:34:57.592Z,5.68
2022-11-04T17:39:59.718Z,4.93
2022-11-04T17:45:01.790Z,3.88
2022-11-04T17:50:06.890Z,4.13
2022-11-04T17:55:15.451Z,3.40
2022-11-04T18:00:19.581Z,3.10
2022-11-04T18:05:21.967Z,3.90
2022-11-04T18:10:24.189Z,3.50
2022-11-04T18:15:26.410Z,3.33
2022-11-04T18:20:28.486Z,3.60
2022-11-04T18:25:30.582Z,3.10
2022-11-04T18:30:32.669Z,2.67
2022-11-04T18:35:35.428Z,3.58
2022-11-04T18:40:37.739Z,4.30
2022-11-04T18:45:39.882Z,4.65
2022-11-04T18:50:42.033Z,4.53
2022-11-04T18:55:44.284Z,4.82
2022-11-04T19:00:46.384Z,3.35
2022-11-04T19:05:48.487Z,2.97
2022-11-04T19:11:00.698Z,2.55
2022-11-04T19:16:09.576Z,3.83
2022-11-04T19:21:12.971Z,4.80
2022-11-04T19:26:20.934Z,5.10
2022-11-04T19:31:26.474Z,3.13
2022-11-04T19:36:28.604Z,4.32
2022-11-04T19:41:49.479Z,4.45
2022-11-04T19:46:51.694Z,7.05
2022-11-04T19:51:53.736Z,6.35
2022-11-04T19:56:56.080Z,6.40
2022-11-04T20:01:58.392Z,6.63
2022-11-04T20:07:00.667Z,5.70
2022-11-04T20:12:21.701Z,7.47
2022-11-04T20:17:24.471Z,6.43
2022-11-04T20:22:27.790Z,7.65
2022-11-04T20:27:30.948Z,7.05
2022-11-04T20:32:33.989Z,10.52
2022-11-04T20:37:36.138Z,10.48
2022-11-04T20:42:38.442Z,7.97
2022-11-04T20:47:41.161Z,6.32
2022-11-04T20:52:43.308Z,5.97
2022-11-04T20:57:45.733Z,8.02
2022-11-04T21:02:47.884Z,7.38
2022-11-04T21:07:50.236Z,8.80
2022-11-04T21:12:52.585Z,8.00
2022-11-04T21:17:54.717Z,5.72
2022-11-04T21:22:56.895Z,6.00
2022-11-04T21:27:59.049Z,6.55
2022-11-04T21:33:01.753Z,7.43
2022-11-04T21:38:08.908Z,7.13
2022-11-04T21:43:12.065Z,7.45
2022-11-04T21:48:14.207Z,5.93
2022-11-04T21:53:16.350Z,6.05
2022-11-04T21:58:18.664Z,8.88
2022-11-04T22:03:20.790Z,6.60
2022-11-04T22:08:23.079Z,5.68
2022-11-04T22:13:25.263Z,5.13
2022-11-04T22:18:32.450Z,4.68
2022-11-04T22:23:35.702Z,4.60
2022-11-04T22:28:37.919Z,3.40
2022-11-04T22:33:40.639Z,3.47
2022-11-04T22:38:43.204Z,4.10
2022-11-04T22:43:45.318Z,4.38
2022-11-04T22:48:47.528Z,7.10
2022-11-04T22:53:56.616Z,10.98
2022-11-04T22:59:01.505Z,6.50
2022-11-04T23:04:04.272Z,5.53
2022-11-04T23:09:06.869Z,9.15
2022-11-04T23:14:32.832Z,7.55
2022-11-04T23:19:35.370Z,5.10
2022-11-04T23:24:56.224Z,3.95
2022-11-04T23:30:18.975Z,3.20
2022-11-04T23:35:42.854Z,2.53
2022-11-04T23:41:04.341Z,5.05
2022-11-04T23:46:24.817Z,3.35
2022-11-04T23:51:45.230Z,2.30
2022-11-04T23:57:05.681Z,2.72
